Log in Register

Login to your account

Username *
Password *
Remember Me

Create an account

Fields marked with an asterisk (*) are required.
Name *
Username *
Password *
Verify password *
Email *
Verify email *

Nous contacter

 Téléphone : +33 (0)4 79 54 41 81

Coordonnées détaillées et accès : cliquez ici

 
LFLB °C
    Ferienhaus Ostsee
[source: ADDS]
METAR
LFLB 202000Z AUTO 15003KT 110V200 CAVOK 11/09 Q1014 =
TAF LFLB 201400Z 2015/2115 20010KT CAVOK PROB40 TEMPO 2108/2112 02005KT
TAF
TAF LFLB 201400Z 2015/2115 20010KT CAVOK PROB40 TEMPO 2108/2112 02005KT =
SR / SS: 06:00 / 16:42 UTC (Lever/Coucher du soleil le 2020-10-20)
JSN Boot template designed by JoomlaShine.com